createdAt,value
2017-10-29T00:00:08.579Z,91.55
2017-10-29T00:00:49.119Z,91.83
2017-10-29T00:01:29.645Z,91.55
2017-10-29T00:02:10.205Z,91.64
2017-10-29T00:02:50.806Z,91.64
2017-10-29T00:03:31.317Z,91.27
2017-10-29T00:04:11.864Z,91.55
2017-10-29T00:04:52.391Z,91.55
2017-10-29T00:05:32.956Z,91.36
2017-10-29T00:06:13.484Z,91.27
2017-10-29T00:06:54.047Z,91.55
2017-10-29T00:07:34.622Z,91.55
2017-10-29T00:08:15.152Z,91.64
2017-10-29T00:08:55.725Z,91.27
2017-10-29T00:09:36.300Z,91.64
2017-10-29T00:10:16.814Z,91.83
2017-10-29T00:10:57.367Z,91.74
2017-10-29T00:11:37.889Z,91.83
2017-10-29T00:12:18.441Z,91.83
2017-10-29T00:12:59.033Z,91.83
2017-10-29T00:13:39.487Z,92.32
2017-10-29T00:14:20.317Z,92.03
2017-10-29T00:15:00.875Z,92.03
2017-10-29T00:15:41.421Z,92.22
2017-10-29T00:16:21.958Z,92.6
2017-10-29T00:17:02.516Z,92.79
2017-10-29T00:17:43.099Z,93.27
2017-10-29T00:18:23.602Z,93.08
2017-10-29T00:19:04.186Z,93.93
2017-10-29T00:19:44.676Z,94.51
2017-10-29T00:20:25.215Z,94.51
2017-10-29T00:21:05.763Z,94.89
2017-10-29T00:21:46.352Z,94.32
2017-10-29T00:22:26.890Z,94.79
2017-10-29T00:23:07.410Z,95.56
2017-10-29T00:23:47.957Z,95.08
2017-10-29T00:24:28.461Z,95.56
2017-10-29T00:25:09.002Z,95.75
2017-10-29T00:25:49.543Z,95.56
2017-10-29T00:26:30.180Z,95.56
2017-10-29T00:27:10.758Z,95.46
2017-10-29T00:27:51.286Z,95.56
2017-10-29T00:28:31.861Z,95.51
2017-10-29T00:29:12.365Z,95.51
2017-10-29T00:29:52.886Z,96.17
2017-10-29T00:30:33.453Z,96.56
2017-10-29T00:31:14.003Z,96.36
2017-10-29T00:31:54.505Z,96.84
2017-10-29T00:32:35.036Z,96.94
2017-10-29T00:33:15.569Z,96.65
2017-10-29T00:33:56.155Z,96.46
2017-10-29T00:34:36.626Z,96.84
2017-10-29T00:35:17.171Z,97.32
2017-10-29T00:35:57.829Z,97.03
2017-10-29T00:36:38.345Z,97.89
2017-10-29T00:37:18.915Z,97.89
2017-10-29T00:37:59.430Z,97.99
2017-10-29T00:38:39.974Z,97.7
2017-10-29T00:39:20.478Z,97.61
2017-10-29T00:40:01.018Z,97.8
2017-10-29T00:40:41.616Z,98.46
2017-10-29T00:41:22.119Z,97.8
2017-10-29T00:42:02.645Z,98.27
2017-10-29T00:42:43.189Z,98.08
2017-10-29T00:43:23.758Z,98.85
2017-10-29T00:44:04.275Z,98.56
2017-10-29T00:44:44.854Z,98.85
2017-10-29T00:45:25.354Z,98.46
2017-10-29T00:46:05.890Z,98.79
2017-10-29T00:46:46.398Z,98.6
2017-10-29T00:47:26.985Z,99.08
2017-10-29T00:48:07.530Z,98.94
2017-10-29T00:48:48.070Z,99.22
2017-10-29T00:49:28.619Z,98.94
2017-10-29T00:50:09.185Z,98.94
2017-10-29T00:50:49.690Z,99.04
2017-10-29T00:51:30.242Z,99.13
2017-10-29T00:52:10.777Z,98.65
2017-10-29T00:52:51.273Z,99.8
2017-10-29T00:53:31.807Z,99.7
2017-10-29T00:54:12.343Z,99.04
2017-10-29T00:54:52.901Z,98.46
2017-10-29T00:55:33.466Z,98.56
2017-10-29T00:56:14.005Z,98.46
2017-10-29T00:56:54.567Z,98.56
2017-10-29T00:57:35.177Z,98.46
2017-10-29T00:58:15.703Z,98.56
2017-10-29T00:58:56.255Z,98.75
2017-10-29T00:59:36.817Z,98.56
2017-10-29T01:00:17.361Z,98.08
2017-10-29T01:00:57.935Z,98.65
2017-10-29T01:01:38.490Z,98.46
2017-10-29T01:02:19.009Z,98.56
2017-10-29T01:02:59.576Z,98.18
2017-10-29T01:03:40.161Z,97.89
2017-10-29T01:04:20.685Z,98.36
2017-10-29T01:05:01.213Z,97.61
2017-10-29T01:05:41.729Z,97.89
2017-10-29T01:06:22.302Z,97.89
2017-10-29T01:07:02.827Z,97.13
2017-10-29T01:07:43.422Z,97.61
2017-10-29T01:08:23.968Z,97.89
2017-10-29T01:09:04.478Z,97.61
2017-10-29T01:09:44.988Z,97.41
2017-10-29T01:10:25.542Z,97.61
2017-10-29T01:11:06.057Z,97.8
2017-10-29T01:11:46.572Z,97.41
2017-10-29T01:12:27.111Z,97.7
2017-10-29T01:13:07.668Z,97.61
2017-10-29T01:13:48.210Z,97.61
2017-10-29T01:14:28.716Z,97.61
2017-10-29T01:15:09.303Z,97.89
2017-10-29T01:15:49.880Z,97.89
2017-10-29T01:16:30.375Z,97.7
2017-10-29T01:17:10.895Z,97.61
2017-10-29T01:17:51.437Z,97.89
2017-10-29T01:18:31.941Z,97.7
2017-10-29T01:19:12.442Z,97.61
2017-10-29T01:19:52.998Z,97.51
2017-10-29T01:20:33.606Z,97.61
2017-10-29T01:21:14.122Z,97.8
2017-10-29T01:21:54.639Z,97.32
2017-10-29T01:22:35.186Z,97.7
2017-10-29T01:23:15.779Z,97.61
2017-10-29T01:23:56.282Z,98.36
2017-10-29T01:24:36.857Z,98.36
2017-10-29T01:25:17.385Z,97.41
2017-10-29T01:25:57.928Z,98.36
2017-10-29T01:26:38.452Z,97.61
2017-10-29T01:27:18.997Z,98.18
2017-10-29T01:27:59.506Z,97.99
2017-10-29T01:28:40.018Z,97.8
2017-10-29T01:29:20.600Z,97.89
2017-10-29T01:30:01.077Z,97.51
2017-10-29T01:30:41.621Z,97.03
2017-10-29T01:31:22.197Z,97.32
2017-10-29T01:32:02.763Z,97.13
2017-10-29T01:32:43.296Z,97.8
2017-10-29T01:33:23.789Z,97.8
2017-10-29T01:34:04.378Z,97.7
2017-10-29T01:34:44.921Z,97.89
2017-10-29T01:35:25.451Z,97.7
2017-10-29T01:36:06.018Z,97.61
2017-10-29T01:36:46.543Z,97.32
2017-10-29T01:37:27.084Z,97.51
2017-10-29T01:38:07.630Z,97.13
2017-10-29T01:38:48.160Z,96.84
2017-10-29T01:39:28.726Z,96.94
2017-10-29T01:40:09.271Z,97.41
2017-10-29T01:40:49.785Z,97.41
2017-10-29T01:41:30.349Z,97.8
2017-10-29T01:42:10.850Z,97.61
2017-10-29T01:42:51.372Z,97.32
2017-10-29T01:43:31.931Z,97.41
2017-10-29T01:44:12.422Z,97.32
2017-10-29T01:44:53.536Z,97.03
2017-10-29T01:45:34.050Z,97.89
2017-10-29T01:46:14.601Z,97.61
2017-10-29T01:46:55.120Z,98.36
2017-10-29T01:47:35.671Z,97.99
2017-10-29T01:48:16.225Z,98.27
2017-10-29T01:48:56.814Z,98.65
2017-10-29T01:49:37.360Z,99.04
2017-10-29T01:50:17.875Z,99.32
2017-10-29T01:50:58.420Z,98.56
2017-10-29T01:51:38.960Z,98.85
2017-10-29T01:52:19.512Z,98.75
2017-10-29T01:53:00.048Z,99.04
2017-10-29T01:53:40.609Z,98.56
2017-10-29T01:54:21.148Z,98.94
2017-10-29T01:55:01.693Z,99.6
2017-10-29T01:55:42.223Z,99.51
2017-10-29T01:56:22.703Z,99.32
2017-10-29T01:57:03.229Z,99.89
2017-10-29T01:57:43.819Z,99.6
2017-10-29T01:58:24.331Z,99.6
2017-10-29T01:59:04.841Z,99.8
2017-10-29T01:59:45.408Z,99.89
2017-10-29T02:00:25.952Z,99.32
2017-10-29T02:01:06.497Z,99.8
2017-10-29T02:01:47.006Z,99.32
2017-10-29T02:02:27.561Z,99.99
2017-10-29T02:03:08.088Z,99.99
2017-10-29T02:03:48.668Z,99.99
2017-10-29T02:04:29.216Z,99.89
2017-10-29T02:05:09.738Z,99.22
2017-10-29T02:05:50.260Z,99.32
2017-10-29T02:06:30.808Z,99.22
2017-10-29T02:07:11.353Z,99.99
2017-10-29T02:07:51.935Z,99.99
2017-10-29T02:08:32.515Z,99.99
2017-10-29T02:09:13.057Z,99.7
2017-10-29T02:09:53.586Z,99.99
2017-10-29T02:10:34.128Z,99.99
2017-10-29T02:11:14.668Z,99.6
2017-10-29T02:11:55.199Z,99.7
2017-10-29T02:12:35.767Z,99.6
2017-10-29T02:13:16.290Z,99.41
2017-10-29T02:13:56.850Z,99.6
2017-10-29T02:14:37.359Z,99.51
2017-10-29T02:15:17.892Z,99.41
2017-10-29T02:15:58.413Z,99.04
2017-10-29T02:16:38.926Z,98.94
2017-10-29T02:17:19.460Z,98.75
2017-10-29T02:18:00.014Z,99.32
2017-10-29T02:18:40.544Z,98.94
2017-10-29T02:19:21.109Z,99.04
2017-10-29T02:20:01.626Z,98.94
2017-10-29T02:20:42.164Z,98.75
2017-10-29T02:21:22.707Z,98.36
2017-10-29T02:22:03.225Z,98.46
2017-10-29T02:22:43.748Z,98.75
2017-10-29T02:23:24.294Z,98.65
2017-10-29T02:24:04.839Z,98.85
2017-10-29T02:24:45.377Z,98.75
2017-10-29T02:25:25.959Z,98.36
2017-10-29T02:26:06.453Z,98.75
2017-10-29T02:26:47.091Z,98.75
2017-10-29T02:27:27.666Z,98.94
2017-10-29T02:28:08.234Z,98.75
2017-10-29T02:28:48.710Z,98.56
2017-10-29T02:29:29.236Z,98.94
2017-10-29T02:30:09.784Z,98.36
2017-10-29T02:30:50.256Z,99.13
2017-10-29T02:31:30.777Z,98.56
2017-10-29T02:32:11.318Z,98.75
2017-10-29T02:32:51.844Z,98.75
2017-10-29T02:33:32.377Z,98.94
2017-10-29T02:34:12.919Z,98.85
2017-10-29T02:34:53.469Z,98.94
2017-10-29T02:35:34.016Z,98.85
2017-10-29T02:36:14.532Z,98.65
2017-10-29T02:36:55.066Z,98.36
2017-10-29T02:37:35.580Z,98.27
2017-10-29T02:38:16.154Z,98.18
2017-10-29T02:38:56.662Z,97.8
2017-10-29T02:39:37.266Z,97.61
2017-10-29T02:40:17.759Z,97.61
2017-10-29T02:40:58.313Z,97.61
2017-10-29T02:41:38.847Z,97.32
2017-10-29T02:42:19.435Z,97.13
2017-10-29T02:43:00.039Z,97.13
2017-10-29T02:43:40.523Z,97.03
2017-10-29T02:44:22.814Z,96.75
2017-10-29T02:45:03.568Z,97.13
2017-10-29T02:45:44.111Z,97.03
2017-10-29T02:46:24.659Z,97.22
2017-10-29T02:47:05.171Z,96.75
2017-10-29T02:47:45.681Z,97.32
2017-10-29T02:48:26.212Z,97.13
2017-10-29T02:49:06.766Z,97.22
2017-10-29T02:49:47.304Z,97.61
2017-10-29T02:50:27.832Z,97.13
2017-10-29T02:51:08.403Z,97.03
2017-10-29T02:51:48.914Z,97.41
2017-10-29T02:52:29.407Z,97.03
2017-10-29T02:53:09.963Z,97.32
2017-10-29T02:53:50.618Z,97.22
2017-10-29T02:54:31.062Z,97.8
2017-10-29T02:55:11.575Z,97.8
2017-10-29T02:55:52.104Z,97.51
2017-10-29T02:56:32.662Z,97.7
2017-10-29T02:57:13.195Z,96.94
2017-10-29T02:57:53.732Z,96.94
2017-10-29T02:58:34.249Z,96.84
2017-10-29T02:59:14.783Z,97.22
2017-10-29T02:59:55.374Z,96.94
2017-10-29T03:00:35.856Z,97.13
2017-10-29T03:01:16.453Z,97.13
2017-10-29T03:01:56.976Z,97.03
2017-10-29T03:02:37.444Z,97.13
2017-10-29T03:03:18.039Z,97.51
2017-10-29T03:03:58.601Z,97.13
2017-10-29T03:04:39.097Z,97.51
2017-10-29T03:05:19.629Z,97.13
2017-10-29T03:06:00.180Z,97.22
2017-10-29T03:06:40.679Z,96.46
2017-10-29T03:07:21.221Z,96.84
2017-10-29T03:08:01.749Z,96.75
2017-10-29T03:08:42.334Z,96.27
2017-10-29T03:09:22.857Z,96.94
2017-10-29T03:10:03.530Z,96.46
2017-10-29T03:10:43.999Z,96.46
2017-10-29T03:11:24.572Z,96.36
2017-10-29T03:12:05.071Z,96.36
2017-10-29T03:12:45.629Z,96.56
2017-10-29T03:13:26.222Z,96.46
2017-10-29T03:14:06.782Z,96.36
2017-10-29T03:14:47.263Z,96.36
2017-10-29T03:15:27.764Z,96.84
2017-10-29T03:16:08.356Z,96.65
2017-10-29T03:16:48.913Z,97.03
2017-10-29T03:17:29.514Z,96.36
2017-10-29T03:18:09.977Z,96.36
2017-10-29T03:18:50.494Z,96.46
2017-10-29T03:19:31.054Z,96.36
2017-10-29T03:20:11.563Z,96.56
2017-10-29T03:20:52.091Z,96.08
2017-10-29T03:21:32.674Z,95.98
2017-10-29T03:22:13.227Z,95.79
2017-10-29T03:22:53.830Z,96.08
2017-10-29T03:23:34.370Z,96.17
2017-10-29T03:24:14.953Z,96.17
2017-10-29T03:24:55.436Z,96.03
2017-10-29T03:25:35.980Z,95.37
2017-10-29T03:26:16.501Z,95.7
2017-10-29T03:26:57.014Z,95.98
2017-10-29T03:27:37.535Z,95.7
2017-10-29T03:28:18.063Z,95.61
2017-10-29T03:28:58.619Z,96.08
2017-10-29T03:29:39.136Z,95.56
2017-10-29T03:30:19.663Z,95.65
2017-10-29T03:31:00.205Z,95.37
2017-10-29T03:31:40.686Z,95.56
2017-10-29T03:32:21.185Z,95.32
2017-10-29T03:33:01.717Z,95.41
2017-10-29T03:33:42.275Z,95.56
2017-10-29T03:34:22.829Z,95.22
2017-10-29T03:35:03.445Z,94.98
2017-10-29T03:35:43.952Z,95.03
2017-10-29T03:36:24.537Z,95.22
2017-10-29T03:37:05.026Z,95.61
2017-10-29T03:37:45.543Z,95.41
2017-10-29T03:38:26.106Z,95.27
2017-10-29T03:39:06.616Z,94.89
2017-10-29T03:39:47.213Z,95.17
2017-10-29T03:40:27.667Z,95.17
2017-10-29T03:41:08.216Z,94.89
2017-10-29T03:41:48.717Z,95.17
2017-10-29T03:42:29.240Z,94.41
2017-10-29T03:43:09.807Z,94.41
2017-10-29T03:43:50.355Z,94.51
2017-10-29T03:44:30.867Z,94.41
2017-10-29T03:45:11.414Z,94.12
2017-10-29T03:45:51.951Z,94.7
2017-10-29T03:46:32.535Z,94.6
2017-10-29T03:47:13.060Z,94.22
2017-10-29T03:47:53.591Z,94.32
2017-10-29T03:48:34.104Z,94.12
2017-10-29T03:49:14.650Z,94.22
2017-10-29T03:49:55.173Z,94.41
2017-10-29T03:50:35.698Z,94.22
2017-10-29T03:51:16.255Z,94.12
2017-10-29T03:51:56.798Z,94.79
2017-10-29T03:52:37.283Z,94.6
2017-10-29T03:53:17.825Z,94.12
2017-10-29T03:53:58.354Z,94.22
2017-10-29T03:54:38.882Z,94.12
2017-10-29T03:55:19.421Z,94.51
2017-10-29T03:55:59.985Z,94.03
2017-10-29T03:56:40.641Z,93.93
2017-10-29T03:57:21.186Z,94.12
2017-10-29T03:58:01.661Z,94.22
2017-10-29T03:58:42.191Z,94.6
2017-10-29T03:59:22.733Z,94.22
2017-10-29T04:00:03.278Z,94.22
2017-10-29T04:00:43.818Z,94.41
2017-10-29T04:01:24.365Z,94.03
2017-10-29T04:02:04.884Z,94.41
2017-10-29T04:02:45.454Z,94.32
2017-10-29T04:03:25.958Z,93.93
2017-10-29T04:04:06.531Z,94.03
2017-10-29T04:04:47.069Z,94.22
2017-10-29T04:05:27.594Z,94.22
2017-10-29T04:06:08.144Z,94.12
2017-10-29T04:06:48.670Z,94.03
2017-10-29T04:07:29.229Z,94.32
2017-10-29T04:08:09.747Z,94.22
2017-10-29T04:08:50.307Z,94.6
2017-10-29T04:09:30.831Z,94.6
2017-10-29T04:10:11.362Z,94.79
2017-10-29T04:10:51.907Z,94.32
2017-10-29T04:11:32.448Z,94.51
2017-10-29T04:12:12.996Z,94.6
2017-10-29T04:12:53.520Z,94.89
2017-10-29T04:13:34.092Z,94.32
2017-10-29T04:14:14.591Z,94.41
2017-10-29T04:14:55.100Z,94.89
2017-10-29T04:15:35.647Z,94.41
2017-10-29T04:16:16.217Z,94.32
2017-10-29T04:16:56.718Z,94.6
2017-10-29T04:17:37.278Z,94.32
2017-10-29T04:18:17.813Z,94.6
2017-10-29T04:18:58.334Z,94.41
2017-10-29T04:19:38.873Z,95.08
2017-10-29T04:20:19.416Z,94.89
2017-10-29T04:20:59.969Z,94.98
2017-10-29T04:21:40.532Z,95.08
2017-10-29T04:22:21.091Z,95.27
2017-10-29T04:23:01.678Z,95.22
2017-10-29T04:23:42.243Z,95.03
2017-10-29T04:24:22.722Z,94.93
2017-10-29T04:25:03.248Z,95.12
2017-10-29T04:25:43.784Z,94.79
2017-10-29T04:26:24.344Z,95.37
2017-10-29T04:27:04.893Z,95.46
2017-10-29T04:27:45.437Z,95.7
2017-10-29T04:28:25.937Z,95.79
2017-10-29T04:29:06.462Z,95.7
2017-10-29T04:29:47.013Z,95.7
2017-10-29T04:30:27.589Z,95.79
2017-10-29T04:31:08.117Z,95.79
2017-10-29T04:31:48.681Z,95.79
2017-10-29T04:32:29.236Z,95.51
2017-10-29T04:33:09.720Z,95.79
2017-10-29T04:33:50.265Z,95.98
2017-10-29T04:34:30.799Z,96.27
2017-10-29T04:35:11.322Z,96.66
2017-10-29T04:35:51.877Z,96.37
2017-10-29T04:36:32.408Z,96.46
2017-10-29T04:37:12.978Z,97.13
2017-10-29T04:37:53.520Z,96.66
2017-10-29T04:38:34.057Z,96.56
2017-10-29T04:39:14.605Z,96.84
2017-10-29T04:39:55.131Z,96.66
2017-10-29T04:40:35.691Z,97.03
2017-10-29T04:41:16.193Z,96.75
2017-10-29T04:41:56.759Z,96.75
2017-10-29T04:42:37.323Z,97.32
2017-10-29T04:43:17.889Z,97.42
2017-10-29T04:43:58.428Z,97.32
2017-10-29T04:44:38.989Z,97.32
2017-10-29T04:45:19.482Z,97.03
2017-10-29T04:46:00.015Z,97.42
2017-10-29T04:46:40.541Z,97.8
2017-10-29T04:47:21.157Z,97.51
2017-10-29T04:48:01.679Z,97.99
2017-10-29T04:48:42.197Z,97.8
2017-10-29T04:49:22.704Z,97.99
2017-10-29T04:50:04.192Z,97.8
2017-10-29T04:50:44.738Z,97.99
2017-10-29T04:51:25.264Z,97.71
2017-10-29T04:52:05.790Z,97.8
2017-10-29T04:52:46.343Z,97.71
2017-10-29T04:53:26.873Z,97.8
2017-10-29T04:54:07.417Z,98.47
2017-10-29T04:54:47.998Z,98.27
2017-10-29T04:55:28.556Z,98.18
2017-10-29T04:56:09.090Z,98.27
2017-10-29T04:56:49.614Z,98.18
2017-10-29T04:57:30.138Z,98.18
2017-10-29T04:58:10.643Z,98.37
2017-10-29T04:58:51.196Z,98.27
2017-10-29T04:59:31.738Z,98.08
2017-10-29T05:00:12.301Z,98.18
2017-10-29T05:00:52.840Z,98.56
2017-10-29T05:01:33.369Z,98.47
2017-10-29T05:02:13.910Z,98.18
2017-10-29T05:02:54.460Z,98.18
2017-10-29T05:03:34.978Z,98.23
2017-10-29T05:04:15.521Z,98.37
2017-10-29T05:04:56.048Z,98.13
2017-10-29T05:05:36.587Z,98.08
2017-10-29T05:06:17.091Z,98.47
2017-10-29T05:06:57.644Z,98.27
2017-10-29T05:07:38.177Z,98.27
2017-10-29T05:08:18.715Z,98.42
2017-10-29T05:08:59.318Z,98.23
2017-10-29T05:09:39.831Z,98.23
2017-10-29T05:10:20.437Z,98.42
2017-10-29T05:11:00.946Z,98.42
2017-10-29T05:11:41.463Z,97.75
2017-10-29T05:12:21.963Z,98.13
2017-10-29T05:13:02.535Z,97.94
2017-10-29T05:13:43.057Z,98.13
2017-10-29T05:14:23.618Z,98.61
2017-10-29T05:15:04.125Z,98.99
2017-10-29T05:15:44.674Z,98.85
2017-10-29T05:16:25.212Z,99.08
2017-10-29T05:17:05.727Z,98.56
2017-10-29T05:17:46.265Z,98.94
2017-10-29T05:18:26.810Z,98.94
2017-10-29T05:19:07.387Z,98.75
2017-10-29T05:19:47.884Z,98.8
2017-10-29T05:20:28.419Z,98.8
2017-10-29T05:21:08.926Z,98.42
2017-10-29T05:21:49.477Z,98.66
2017-10-29T05:22:29.985Z,98.61
2017-10-29T05:23:10.573Z,98.8
2017-10-29T05:23:51.113Z,99.18
2017-10-29T05:24:31.646Z,98.61
2017-10-29T05:25:12.167Z,99.08
2017-10-29T05:25:52.731Z,98.9
2017-10-29T05:26:33.321Z,98.99
2017-10-29T05:27:13.816Z,98.8
2017-10-29T05:27:54.343Z,99.08
2017-10-29T05:28:34.873Z,98.9
2017-10-29T05:29:15.435Z,99.28
2017-10-29T05:29:55.952Z,99.08
2017-10-29T05:30:36.499Z,99.18
2017-10-29T05:31:17.051Z,99.08
2017-10-29T05:31:57.556Z,98.99
2017-10-29T05:32:38.089Z,99.37
2017-10-29T05:33:18.624Z,98.8
2017-10-29T05:33:59.196Z,98.52
2017-10-29T05:34:39.740Z,98.9
2017-10-29T05:35:20.264Z,99.08
2017-10-29T05:36:00.837Z,98.9
2017-10-29T05:36:41.345Z,98.52
2017-10-29T05:37:21.910Z,98.71
2017-10-29T05:38:02.497Z,98.9
2017-10-29T05:38:43.074Z,98.99
2017-10-29T05:39:23.588Z,98.8
2017-10-29T05:40:04.117Z,98.9
2017-10-29T05:40:44.663Z,99.18
2017-10-29T05:41:25.221Z,99.08
2017-10-29T05:42:05.765Z,99.28
2017-10-29T05:42:46.317Z,98.71
2017-10-29T05:43:26.854Z,98.8
2017-10-29T05:44:07.409Z,98.9
2017-10-29T05:44:47.906Z,98.71
2017-10-29T05:45:28.448Z,98.71
2017-10-29T05:46:08.971Z,98.99
2017-10-29T05:46:49.496Z,98.9
2017-10-29T05:47:30.057Z,98.52
2017-10-29T05:48:10.610Z,99.04
2017-10-29T05:48:51.129Z,99.18
2017-10-29T05:49:31.682Z,98.9
2017-10-29T05:50:12.203Z,98.52
2017-10-29T05:50:52.751Z,98.8
2017-10-29T05:51:33.305Z,98.8
2017-10-29T05:52:13.885Z,98.52
2017-10-29T05:52:54.441Z,98.8
2017-10-29T05:53:34.984Z,98.52
2017-10-29T05:54:15.470Z,98.9
2017-10-29T05:54:56.015Z,98.99
2017-10-29T05:55:36.578Z,98.71
2017-10-29T05:56:17.105Z,98.8
2017-10-29T05:56:57.644Z,98.52
2017-10-29T05:57:38.185Z,99.28
2017-10-29T05:58:18.746Z,99.18
2017-10-29T05:58:59.245Z,99.08
2017-10-29T05:59:39.789Z,99.66
2017-10-29T06:00:20.340Z,99.76
2017-10-29T06:01:00.898Z,99.47
2017-10-29T06:01:41.392Z,99.76
2017-10-29T06:02:21.964Z,99.76
2017-10-29T06:03:02.505Z,99.47
2017-10-29T06:03:43.083Z,99.66
2017-10-29T06:04:23.600Z,99.37
2017-10-29T06:05:04.124Z,99.99
2017-10-29T06:05:44.659Z,99.99
2017-10-29T06:06:25.188Z,99.99
2017-10-29T06:07:05.730Z,99.37
2017-10-29T06:07:46.282Z,99.99
2017-10-29T06:08:26.814Z,99.99
2017-10-29T06:09:07.366Z,99.99
2017-10-29T06:09:47.877Z,99.37
2017-10-29T06:10:28.411Z,99.66
2017-10-29T06:11:08.919Z,99.57
2017-10-29T06:11:49.471Z,99.66
2017-10-29T06:12:30.036Z,99.76
2017-10-29T06:13:10.562Z,99.47
2017-10-29T06:13:51.155Z,98.9
2017-10-29T06:14:31.684Z,99.18
2017-10-29T06:15:12.215Z,99.76
2017-10-29T06:15:52.738Z,99.66
2017-10-29T06:16:33.246Z,99.85
2017-10-29T06:17:13.793Z,99.18
2017-10-29T06:17:54.312Z,99.76
2017-10-29T06:18:34.891Z,99.76
2017-10-29T06:19:15.457Z,99.76
2017-10-29T06:19:55.946Z,99.76
2017-10-29T06:20:36.490Z,99.37
2017-10-29T06:21:17.008Z,99.66
2017-10-29T06:21:57.553Z,99.66
2017-10-29T06:22:38.064Z,99.37
2017-10-29T06:23:18.590Z,99.66
2017-10-29T06:23:59.167Z,99.99
2017-10-29T06:24:39.712Z,99.57
2017-10-29T06:25:20.212Z,99.66
2017-10-29T06:26:00.762Z,99.76
2017-10-29T06:26:41.314Z,99.47
2017-10-29T06:27:21.850Z,99.76
2017-10-29T06:28:02.396Z,99.95
2017-10-29T06:28:43.011Z,99.99
2017-10-29T06:29:23.605Z,99.99
2017-10-29T06:30:04.104Z,99.47
2017-10-29T06:30:44.692Z,99.76
2017-10-29T06:31:25.176Z,99.37
2017-10-29T06:32:08.692Z,99.76
2017-10-29T06:32:49.225Z,99.47
2017-10-29T06:33:29.786Z,99.57
2017-10-29T06:34:10.328Z,99.08
2017-10-29T06:34:51.481Z,99.08
2017-10-29T06:35:31.986Z,99.28
2017-10-29T06:36:12.561Z,99.76
2017-10-29T06:36:53.087Z,99.66
2017-10-29T06:37:33.562Z,99.37
2017-10-29T06:38:14.063Z,99.37
2017-10-29T06:38:54.647Z,99.37
2017-10-29T06:39:35.190Z,99.76
2017-10-29T06:40:15.696Z,99.99
2017-10-29T06:40:56.275Z,99.95
2017-10-29T06:41:36.809Z,99.66
2017-10-29T06:42:17.390Z,99.99
2017-10-29T06:42:57.883Z,99.99
2017-10-29T06:43:38.398Z,99.76
2017-10-29T06:44:18.991Z,99.76
2017-10-29T06:44:59.590Z,99.99
2017-10-29T06:45:40.090Z,99.99
2017-10-29T06:46:20.636Z,99.76
2017-10-29T06:47:01.160Z,99.85
2017-10-29T06:47:41.699Z,99.99
2017-10-29T06:48:22.232Z,99.99
2017-10-29T06:49:02.788Z,99.95
2017-10-29T06:49:43.302Z,99.99
2017-10-29T06:50:23.867Z,99.99
2017-10-29T06:51:04.432Z,99.99
2017-10-29T06:51:44.964Z,99.99
2017-10-29T06:52:25.538Z,99.99
2017-10-29T06:53:06.060Z,99.99
2017-10-29T06:53:46.606Z,99.99
2017-10-29T06:54:27.156Z,99.99
2017-10-29T06:55:07.703Z,99.99
2017-10-29T06:55:48.233Z,99.99
2017-10-29T06:56:28.805Z,99.99
2017-10-29T06:57:09.330Z,99.99
2017-10-29T06:57:49.849Z,99.99
2017-10-29T06:58:30.350Z,99.99
2017-10-29T06:59:10.905Z,99.99
2017-10-29T06:59:51.419Z,99.99
2017-10-29T07:00:32.023Z,99.99
2017-10-29T07:01:12.576Z,99.99
2017-10-29T07:01:53.194Z,99.99
2017-10-29T07:02:33.678Z,99.99
2017-10-29T07:03:14.211Z,99.99
2017-10-29T07:03:54.804Z,99.99
2017-10-29T07:04:35.381Z,99.99
2017-10-29T07:05:15.908Z,99.99
2017-10-29T07:05:56.515Z,99.99
2017-10-29T07:06:37.053Z,99.99
2017-10-29T07:07:17.601Z,99.99
2017-10-29T07:07:58.160Z,99.99
2017-10-29T07:08:38.783Z,99.99
2017-10-29T07:09:19.270Z,99.99
2017-10-29T07:09:59.863Z,99.99
2017-10-29T07:10:40.397Z,99.99
2017-10-29T07:11:20.940Z,99.99
2017-10-29T07:12:01.527Z,99.99
2017-10-29T07:12:42.041Z,99.99
2017-10-29T07:13:22.620Z,99.99
2017-10-29T07:14:03.206Z,99.99
2017-10-29T07:14:43.814Z,99.99
2017-10-29T07:15:24.502Z,99.99
2017-10-29T07:16:05.153Z,99.99
2017-10-29T07:16:45.657Z,99.99
2017-10-29T07:17:26.228Z,99.99
2017-10-29T07:18:06.894Z,99.99
2017-10-29T07:18:47.619Z,99.99
2017-10-29T07:19:28.251Z,99.99
2017-10-29T07:20:08.817Z,99.99
2017-10-29T07:20:49.338Z,99.99
2017-10-29T07:21:29.888Z,99.99
2017-10-29T07:22:10.476Z,99.99
2017-10-29T07:22:51.132Z,99.99
2017-10-29T07:23:31.662Z,99.99
2017-10-29T07:24:12.179Z,99.99
2017-10-29T07:24:52.817Z,99.99
2017-10-29T07:25:33.390Z,99.99
2017-10-29T07:26:13.924Z,99.99
2017-10-29T07:26:54.500Z,99.99
2017-10-29T07:27:35.144Z,99.99
2017-10-29T07:28:16.024Z,99.99
2017-10-29T07:28:56.463Z,99.99
2017-10-29T07:29:37.030Z,99.99
2017-10-29T07:30:17.694Z,99.99
2017-10-29T07:30:58.366Z,99.99
2017-10-29T07:31:38.958Z,99.99
2017-10-29T07:32:19.434Z,99.99
2017-10-29T07:33:00.003Z,99.99
2017-10-29T07:33:40.597Z,99.99
2017-10-29T07:34:21.141Z,99.99
2017-10-29T07:35:01.706Z,99.99
2017-10-29T07:35:42.281Z,99.99
2017-10-29T07:36:22.828Z,99.99
2017-10-29T07:37:03.620Z,99.99
2017-10-29T07:37:44.160Z,99.99
2017-10-29T07:38:24.671Z,99.99
2017-10-29T07:39:05.183Z,99.99
2017-10-29T07:39:45.835Z,99.99
2017-10-29T07:40:26.362Z,99.99
2017-10-29T07:41:06.931Z,99.99
2017-10-29T07:41:47.506Z,99.99
2017-10-29T07:42:28.360Z,99.99
2017-10-29T07:43:08.936Z,99.99
2017-10-29T07:43:49.501Z,99.99
2017-10-29T07:44:30.033Z,99.99
2017-10-29T07:45:10.559Z,99.99
2017-10-29T07:45:51.131Z,99.99
2017-10-29T07:46:31.833Z,99.99
2017-10-29T07:47:12.376Z,99.99
2017-10-29T07:47:53.780Z,99.99
2017-10-29T07:48:34.423Z,99.99
2017-10-29T07:49:14.981Z,99.99
2017-10-29T07:49:55.588Z,99.99
2017-10-29T07:50:36.161Z,99.99
2017-10-29T07:51:17.385Z,99.99
2017-10-29T07:51:57.993Z,99.99
2017-10-29T07:52:38.585Z,99.99
2017-10-29T07:53:19.899Z,99.99
2017-10-29T07:54:00.398Z,99.99
2017-10-29T07:54:40.909Z,99.99
2017-10-29T07:55:22.158Z,99.99
2017-10-29T07:56:02.746Z,99.99
2017-10-29T07:56:43.319Z,99.99
2017-10-29T07:57:23.919Z,99.99
2017-10-29T07:58:04.457Z,99.99
2017-10-29T07:58:44.963Z,99.99
2017-10-29T07:59:26.315Z,99.99
2017-10-29T08:00:06.854Z,99.99
2017-10-29T08:00:47.468Z,99.99
2017-10-29T08:01:27.964Z,99.99
2017-10-29T08:02:08.613Z,99.99
2017-10-29T08:02:49.316Z,99.99
2017-10-29T08:03:29.763Z,99.99
2017-10-29T08:04:10.324Z,99.99
2017-10-29T08:04:50.851Z,99.99
2017-10-29T08:05:31.384Z,99.99
2017-10-29T08:06:11.903Z,99.99
2017-10-29T08:06:52.583Z,99.99
2017-10-29T08:07:33.115Z,99.99
2017-10-29T08:08:13.720Z,99.99
2017-10-29T08:08:54.219Z,99.99
2017-10-29T08:09:34.794Z,99.99
2017-10-29T08:10:15.494Z,99.99
2017-10-29T08:10:56.061Z,99.99
2017-10-29T08:11:37.003Z,99.99
2017-10-29T08:12:17.836Z,99.99
2017-10-29T08:12:58.310Z,99.99
2017-10-29T08:13:38.829Z,99.99
2017-10-29T08:14:19.571Z,99.99
2017-10-29T08:15:00.145Z,99.99
2017-10-29T08:15:40.689Z,99.99
2017-10-29T08:16:21.281Z,99.99
2017-10-29T08:17:01.833Z,99.99
2017-10-29T08:17:42.369Z,99.99
2017-10-29T08:18:22.896Z,99.99
2017-10-29T08:19:03.516Z,99.99
2017-10-29T08:19:44.124Z,99.99
2017-10-29T08:20:24.630Z,99.99
2017-10-29T08:21:05.209Z,99.99
2017-10-29T08:21:45.765Z,99.99
2017-10-29T08:22:26.292Z,99.99
2017-10-29T08:23:06.888Z,99.99
2017-10-29T08:23:47.429Z,99.99
2017-10-29T08:24:27.955Z,99.99
2017-10-29T08:25:08.428Z,99.99
2017-10-29T08:25:48.940Z,99.99
2017-10-29T08:26:29.533Z,99.99
2017-10-29T08:27:10.082Z,99.99
2017-10-29T08:27:50.589Z,99.99
2017-10-29T08:28:31.137Z,99.99
2017-10-29T08:29:11.712Z,99.99
2017-10-29T08:29:52.470Z,99.99
2017-10-29T08:30:32.923Z,99.99
2017-10-29T08:31:13.574Z,99.99
2017-10-29T08:31:54.458Z,99.99
2017-10-29T08:32:34.943Z,99.99
2017-10-29T08:33:15.513Z,99.99
2017-10-29T08:33:56.032Z,99.99
2017-10-29T08:34:36.636Z,99.99
2017-10-29T08:35:17.195Z,99.99
2017-10-29T08:35:57.701Z,99.99
2017-10-29T08:36:38.249Z,99.99
2017-10-29T08:37:18.789Z,99.99
2017-10-29T08:37:59.318Z,99.99
2017-10-29T08:38:39.969Z,99.99
2017-10-29T08:39:20.538Z,99.99
2017-10-29T08:40:01.140Z,99.99
2017-10-29T08:40:41.684Z,99.99
2017-10-29T08:41:22.232Z,99.99
2017-10-29T08:42:02.757Z,99.99
2017-10-29T08:42:43.596Z,99.99
2017-10-29T08:43:24.269Z,99.99
2017-10-29T08:44:04.828Z,99.99